sensor_id;sensor_type;location;lat;lon;timestamp;P1;durP1;ratioP1;P2;durP2;ratioP2
67585;SDS011;55785;47.946;20.540;2024-03-07T00:01:42;2.93;;;1.77;;
67585;SDS011;55785;47.946;20.540;2024-03-07T00:04:07;3.00;;;1.50;;
67585;SDS011;55785;47.946;20.540;2024-03-07T00:06:33;2.80;;;1.57;;
67585;SDS011;55785;47.946;20.540;2024-03-07T00:08:58;2.57;;;1.83;;
67585;SDS011;55785;47.946;20.540;2024-03-07T00:11:23;2.37;;;1.63;;
67585;SDS011;55785;47.946;20.540;2024-03-07T00:13:49;2.67;;;1.53;;
67585;SDS011;55785;47.946;20.540;2024-03-07T00:16:14;1.50;;;1.20;;
67585;SDS011;55785;47.946;20.540;2024-03-07T00:18:39;2.90;;;1.90;;
67585;SDS011;55785;47.946;20.540;2024-03-07T00:21:05;3.07;;;1.70;;
67585;SDS011;55785;47.946;20.540;2024-03-07T00:23:30;1.57;;;1.33;;
67585;SDS011;55785;47.946;20.540;2024-03-07T00:25:55;2.63;;;1.47;;
67585;SDS011;55785;47.946;20.540;2024-03-07T00:28:21;2.00;;;1.50;;
67585;SDS011;55785;47.946;20.540;2024-03-07T00:30:46;2.07;;;1.43;;
67585;SDS011;55785;47.946;20.540;2024-03-07T00:33:11;2.13;;;1.33;;
67585;SDS011;55785;47.946;20.540;2024-03-07T00:35:37;3.90;;;1.90;;
67585;SDS011;55785;47.946;20.540;2024-03-07T00:38:02;1.10;;;1.00;;
67585;SDS011;55785;47.946;20.540;2024-03-07T00:40:28;3.33;;;1.90;;
67585;SDS011;55785;47.946;20.540;2024-03-07T00:42:53;2.67;;;1.70;;
67585;SDS011;55785;47.946;20.540;2024-03-07T00:45:18;1.67;;;1.30;;
67585;SDS011;55785;47.946;20.540;2024-03-07T00:47:44;1.93;;;1.57;;
67585;SDS011;55785;47.946;20.540;2024-03-07T00:50:09;2.77;;;1.50;;
67585;SDS011;55785;47.946;20.540;2024-03-07T00:52:35;2.53;;;1.73;;
67585;SDS011;55785;47.946;20.540;2024-03-07T00:55:00;1.67;;;1.50;;
67585;SDS011;55785;47.946;20.540;2024-03-07T00:57:26;2.87;;;1.17;;
67585;SDS011;55785;47.946;20.540;2024-03-07T00:59:51;1.43;;;1.23;;
67585;SDS011;55785;47.946;20.540;2024-03-07T01:02:16;5.03;;;1.63;;
67585;SDS011;55785;47.946;20.540;2024-03-07T01:04:42;3.77;;;2.10;;
67585;SDS011;55785;47.946;20.540;2024-03-07T01:07:07;2.20;;;1.50;;
67585;SDS011;55785;47.946;20.540;2024-03-07T01:09:32;1.70;;;1.40;;
67585;SDS011;55785;47.946;20.540;2024-03-07T01:11:58;2.37;;;1.77;;
67585;SDS011;55785;47.946;20.540;2024-03-07T01:14:23;2.43;;;1.63;;
67585;SDS011;55785;47.946;20.540;2024-03-07T01:16:48;2.37;;;1.73;;
67585;SDS011;55785;47.946;20.540;2024-03-07T01:19:14;1.93;;;1.47;;
67585;SDS011;55785;47.946;20.540;2024-03-07T01:21:39;1.97;;;1.13;;
67585;SDS011;55785;47.946;20.540;2024-03-07T01:24:05;3.03;;;1.80;;
67585;SDS011;55785;47.946;20.540;2024-03-07T01:26:30;1.87;;;1.30;;
67585;SDS011;55785;47.946;20.540;2024-03-07T01:28:56;2.03;;;1.60;;
67585;SDS011;55785;47.946;20.540;2024-03-07T01:31:22;1.23;;;1.00;;
67585;SDS011;55785;47.946;20.540;2024-03-07T01:33:47;1.93;;;1.50;;
67585;SDS011;55785;47.946;20.540;2024-03-07T01:36:13;1.40;;;1.30;;
67585;SDS011;55785;47.946;20.540;2024-03-07T01:38:38;1.93;;;1.50;;
67585;SDS011;55785;47.946;20.540;2024-03-07T01:41:04;1.37;;;1.07;;
67585;SDS011;55785;47.946;20.540;2024-03-07T01:43:29;1.80;;;1.33;;
67585;SDS011;55785;47.946;20.540;2024-03-07T01:45:54;1.40;;;1.13;;
67585;SDS011;55785;47.946;20.540;2024-03-07T01:48:24;1.90;;;1.23;;
67585;SDS011;55785;47.946;20.540;2024-03-07T01:51:02;1.50;;;1.10;;
67585;SDS011;55785;47.946;20.540;2024-03-07T01:53:28;1.38;;;1.05;;
67585;SDS011;55785;47.946;20.540;2024-03-07T01:55:56;2.20;;;1.43;;
67585;SDS011;55785;47.946;20.540;2024-03-07T01:58:22;1.40;;;1.03;;
67585;SDS011;55785;47.946;20.540;2024-03-07T02:00:49;2.03;;;1.40;;
67585;SDS011;55785;47.946;20.540;2024-03-07T02:03:14;1.43;;;1.13;;
67585;SDS011;55785;47.946;20.540;2024-03-07T02:05:43;1.63;;;1.40;;
67585;SDS011;55785;47.946;20.540;2024-03-07T02:08:08;1.27;;;1.17;;
67585;SDS011;55785;47.946;20.540;2024-03-07T02:10:34;2.97;;;1.60;;
67585;SDS011;55785;47.946;20.540;2024-03-07T02:12:59;1.70;;;1.17;;
67585;SDS011;55785;47.946;20.540;2024-03-07T02:15:24;2.17;;;1.43;;
67585;SDS011;55785;47.946;20.540;2024-03-07T02:17:50;4.17;;;1.27;;
67585;SDS011;55785;47.946;20.540;2024-03-07T02:20:15;1.43;;;1.20;;
67585;SDS011;55785;47.946;20.540;2024-03-07T02:22:41;1.70;;;1.00;;
67585;SDS011;55785;47.946;20.540;2024-03-07T02:25:06;1.80;;;1.30;;
67585;SDS011;55785;47.946;20.540;2024-03-07T02:27:32;3.10;;;1.10;;
67585;SDS011;55785;47.946;20.540;2024-03-07T02:29:57;1.53;;;1.10;;
67585;SDS011;55785;47.946;20.540;2024-03-07T02:32:23;2.10;;;1.40;;
67585;SDS011;55785;47.946;20.540;2024-03-07T02:34:48;1.20;;;1.03;;
67585;SDS011;55785;47.946;20.540;2024-03-07T02:37:13;1.13;;;1.03;;
67585;SDS011;55785;47.946;20.540;2024-03-07T02:39:39;2.00;;;1.40;;
67585;SDS011;55785;47.946;20.540;2024-03-07T02:42:04;1.90;;;1.30;;
67585;SDS011;55785;47.946;20.540;2024-03-07T02:44:30;1.33;;;0.90;;
67585;SDS011;55785;47.946;20.540;2024-03-07T02:46:55;2.60;;;1.30;;
67585;SDS011;55785;47.946;20.540;2024-03-07T02:49:21;1.73;;;1.20;;
67585;SDS011;55785;47.946;20.540;2024-03-07T02:51:46;2.17;;;1.40;;
67585;SDS011;55785;47.946;20.540;2024-03-07T02:54:12;2.80;;;1.40;;
67585;SDS011;55785;47.946;20.540;2024-03-07T02:56:37;1.57;;;1.00;;
67585;SDS011;55785;47.946;20.540;2024-03-07T02:59:03;2.67;;;1.27;;
67585;SDS011;55785;47.946;20.540;2024-03-07T03:01:28;2.47;;;1.10;;
67585;SDS011;55785;47.946;20.540;2024-03-07T03:03:53;1.03;;;1.00;;
67585;SDS011;55785;47.946;20.540;2024-03-07T03:06:19;1.37;;;1.20;;
67585;SDS011;55785;47.946;20.540;2024-03-07T03:08:44;1.27;;;0.90;;
67585;SDS011;55785;47.946;20.540;2024-03-07T03:11:09;1.27;;;0.87;;
67585;SDS011;55785;47.946;20.540;2024-03-07T03:13:38;3.73;;;1.40;;
67585;SDS011;55785;47.946;20.540;2024-03-07T03:16:03;1.10;;;0.93;;
67585;SDS011;55785;47.946;20.540;2024-03-07T03:18:29;1.27;;;1.00;;
67585;SDS011;55785;47.946;20.540;2024-03-07T03:20:54;1.60;;;1.07;;
67585;SDS011;55785;47.946;20.540;2024-03-07T03:23:20;0.90;;;0.77;;
67585;SDS011;55785;47.946;20.540;2024-03-07T03:25:45;1.37;;;0.83;;
67585;SDS011;55785;47.946;20.540;2024-03-07T03:28:11;1.57;;;1.00;;
67585;SDS011;55785;47.946;20.540;2024-03-07T03:30:39;1.53;;;0.80;;
67585;SDS011;55785;47.946;20.540;2024-03-07T03:33:06;1.00;;;0.80;;
67585;SDS011;55785;47.946;20.540;2024-03-07T03:35:35;1.73;;;1.00;;
67585;SDS011;55785;47.946;20.540;2024-03-07T03:38:04;1.20;;;0.90;;
67585;SDS011;55785;47.946;20.540;2024-03-07T03:40:29;1.30;;;0.80;;
67585;SDS011;55785;47.946;20.540;2024-03-07T03:42:55;1.77;;;1.20;;
67585;SDS011;55785;47.946;20.540;2024-03-07T03:45:20;0.63;;;0.63;;
67585;SDS011;55785;47.946;20.540;2024-03-07T03:47:46;2.00;;;1.20;;
67585;SDS011;55785;47.946;20.540;2024-03-07T03:50:12;1.30;;;0.90;;
67585;SDS011;55785;47.946;20.540;2024-03-07T03:52:38;0.93;;;0.70;;
67585;SDS011;55785;47.946;20.540;2024-03-07T03:55:05;1.23;;;1.00;;
67585;SDS011;55785;47.946;20.540;2024-03-07T03:57:31;0.97;;;0.73;;
67585;SDS011;55785;47.946;20.540;2024-03-07T03:59:57;1.53;;;1.10;;
67585;SDS011;55785;47.946;20.540;2024-03-07T04:02:23;0.70;;;0.70;;
67585;SDS011;55785;47.946;20.540;2024-03-07T04:04:49;1.07;;;0.80;;
67585;SDS011;55785;47.946;20.540;2024-03-07T04:07:15;0.77;;;0.77;;
67585;SDS011;55785;47.946;20.540;2024-03-07T04:09:40;0.63;;;0.63;;
67585;SDS011;55785;47.946;20.540;2024-03-07T04:12:06;0.80;;;0.80;;
67585;SDS011;55785;47.946;20.540;2024-03-07T04:14:31;1.93;;;1.07;;
67585;SDS011;55785;47.946;20.540;2024-03-07T04:16:56;1.07;;;0.97;;
67585;SDS011;55785;47.946;20.540;2024-03-07T04:19:22;1.10;;;0.90;;
67585;SDS011;55785;47.946;20.540;2024-03-07T04:21:47;0.80;;;0.60;;
67585;SDS011;55785;47.946;20.540;2024-03-07T04:24:12;0.90;;;0.70;;
67585;SDS011;55785;47.946;20.540;2024-03-07T04:26:38;1.53;;;1.00;;
67585;SDS011;55785;47.946;20.540;2024-03-07T04:29:03;1.10;;;0.80;;
67585;SDS011;55785;47.946;20.540;2024-03-07T04:31:28;1.97;;;1.10;;
67585;SDS011;55785;47.946;20.540;2024-03-07T04:33:54;1.73;;;1.37;;
67585;SDS011;55785;47.946;20.540;2024-03-07T04:36:19;1.83;;;1.13;;
67585;SDS011;55785;47.946;20.540;2024-03-07T04:38:44;0.87;;;0.80;;
67585;SDS011;55785;47.946;20.540;2024-03-07T04:41:10;2.37;;;1.30;;
67585;SDS011;55785;47.946;20.540;2024-03-07T04:43:36;1.00;;;0.70;;
67585;SDS011;55785;47.946;20.540;2024-03-07T04:46:01;0.70;;;0.70;;
67585;SDS011;55785;47.946;20.540;2024-03-07T04:48:27;1.67;;;1.23;;
67585;SDS011;55785;47.946;20.540;2024-03-07T04:50:52;1.10;;;1.00;;
67585;SDS011;55785;47.946;20.540;2024-03-07T04:53:17;2.33;;;1.53;;
67585;SDS011;55785;47.946;20.540;2024-03-07T04:55:43;2.20;;;1.00;;
67585;SDS011;55785;47.946;20.540;2024-03-07T04:58:08;1.50;;;1.07;;
67585;SDS011;55785;47.946;20.540;2024-03-07T05:00:33;0.93;;;0.77;;
67585;SDS011;55785;47.946;20.540;2024-03-07T05:02:59;1.27;;;0.93;;
67585;SDS011;55785;47.946;20.540;2024-03-07T05:05:24;1.17;;;0.73;;
67585;SDS011;55785;47.946;20.540;2024-03-07T05:07:49;1.33;;;1.00;;
67585;SDS011;55785;47.946;20.540;2024-03-07T05:10:15;1.53;;;1.20;;
67585;SDS011;55785;47.946;20.540;2024-03-07T05:12:40;0.97;;;0.90;;
67585;SDS011;55785;47.946;20.540;2024-03-07T05:15:06;1.10;;;1.00;;
67585;SDS011;55785;47.946;20.540;2024-03-07T05:17:32;1.63;;;1.30;;
67585;SDS011;55785;47.946;20.540;2024-03-07T05:19:57;1.40;;;1.00;;
67585;SDS011;55785;47.946;20.540;2024-03-07T05:22:22;1.83;;;0.83;;
67585;SDS011;55785;47.946;20.540;2024-03-07T05:24:48;1.33;;;1.10;;
67585;SDS011;55785;47.946;20.540;2024-03-07T05:27:13;2.10;;;1.50;;
67585;SDS011;55785;47.946;20.540;2024-03-07T05:29:38;2.00;;;1.20;;
67585;SDS011;55785;47.946;20.540;2024-03-07T05:32:19;1.00;;;0.90;;
67585;SDS011;55785;47.946;20.540;2024-03-07T05:34:46;1.67;;;1.17;;
67585;SDS011;55785;47.946;20.540;2024-03-07T05:37:11;1.63;;;1.23;;
67585;SDS011;55785;47.946;20.540;2024-03-07T05:39:37;1.33;;;1.20;;
67585;SDS011;55785;47.946;20.540;2024-03-07T05:42:02;2.47;;;1.57;;
67585;SDS011;55785;47.946;20.540;2024-03-07T05:44:27;2.80;;;1.70;;
67585;SDS011;55785;47.946;20.540;2024-03-07T05:46:53;2.17;;;1.57;;
67585;SDS011;55785;47.946;20.540;2024-03-07T05:49:18;1.70;;;1.47;;
67585;SDS011;55785;47.946;20.540;2024-03-07T05:51:43;3.13;;;1.33;;
67585;SDS011;55785;47.946;20.540;2024-03-07T05:54:09;1.73;;;1.50;;
67585;SDS011;55785;47.946;20.540;2024-03-07T05:56:34;1.00;;;0.97;;
67585;SDS011;55785;47.946;20.540;2024-03-07T05:58:59;2.67;;;1.63;;
67585;SDS011;55785;47.946;20.540;2024-03-07T06:01:24;2.90;;;1.40;;
67585;SDS011;55785;47.946;20.540;2024-03-07T06:03:50;2.77;;;2.00;;
67585;SDS011;55785;47.946;20.540;2024-03-07T06:06:15;3.47;;;1.67;;
67585;SDS011;55785;47.946;20.540;2024-03-07T06:08:40;1.90;;;1.70;;
67585;SDS011;55785;47.946;20.540;2024-03-07T06:11:06;3.10;;;2.00;;
67585;SDS011;55785;47.946;20.540;2024-03-07T06:13:31;2.00;;;1.63;;
67585;SDS011;55785;47.946;20.540;2024-03-07T06:15:56;2.73;;;2.20;;
67585;SDS011;55785;47.946;20.540;2024-03-07T06:18:22;2.47;;;2.20;;
67585;SDS011;55785;47.946;20.540;2024-03-07T06:20:47;4.03;;;2.13;;
67585;SDS011;55785;47.946;20.540;2024-03-07T06:23:12;3.73;;;2.33;;
67585;SDS011;55785;47.946;20.540;2024-03-07T06:25:38;3.67;;;2.00;;
67585;SDS011;55785;47.946;20.540;2024-03-07T06:28:03;4.43;;;2.23;;
67585;SDS011;55785;47.946;20.540;2024-03-07T06:30:29;2.23;;;1.33;;
67585;SDS011;55785;47.946;20.540;2024-03-07T06:32:54;3.73;;;2.37;;
67585;SDS011;55785;47.946;20.540;2024-03-07T06:35:20;3.73;;;1.90;;
67585;SDS011;55785;47.946;20.540;2024-03-07T06:37:45;3.23;;;2.33;;
67585;SDS011;55785;47.946;20.540;2024-03-07T06:40:10;2.87;;;1.97;;
67585;SDS011;55785;47.946;20.540;2024-03-07T06:42:36;3.97;;;2.33;;
67585;SDS011;55785;47.946;20.540;2024-03-07T06:45:01;4.67;;;2.47;;
67585;SDS011;55785;47.946;20.540;2024-03-07T06:47:29;3.80;;;2.30;;
67585;SDS011;55785;47.946;20.540;2024-03-07T06:49:55;5.27;;;2.83;;
67585;SDS011;55785;47.946;20.540;2024-03-07T06:52:20;4.23;;;2.63;;
67585;SDS011;55785;47.946;20.540;2024-03-07T06:54:45;3.97;;;2.30;;
67585;SDS011;55785;47.946;20.540;2024-03-07T06:57:11;5.00;;;2.63;;
67585;SDS011;55785;47.946;20.540;2024-03-07T06:59:36;3.40;;;2.30;;
67585;SDS011;55785;47.946;20.540;2024-03-07T07:02:02;4.63;;;2.80;;
67585;SDS011;55785;47.946;20.540;2024-03-07T07:04:27;3.87;;;2.60;;
67585;SDS011;55785;47.946;20.540;2024-03-07T07:06:52;4.83;;;2.30;;
67585;SDS011;55785;47.946;20.540;2024-03-07T07:09:18;5.43;;;2.77;;
67585;SDS011;55785;47.946;20.540;2024-03-07T07:11:43;3.53;;;1.90;;
67585;SDS011;55785;47.946;20.540;2024-03-07T07:14:08;3.87;;;2.73;;
67585;SDS011;55785;47.946;20.540;2024-03-07T07:16:34;5.87;;;2.20;;
67585;SDS011;55785;47.946;20.540;2024-03-07T07:18:59;5.03;;;2.70;;
67585;SDS011;55785;47.946;20.540;2024-03-07T07:21:24;3.10;;;2.23;;
67585;SDS011;55785;47.946;20.540;2024-03-07T07:23:50;2.63;;;1.90;;
67585;SDS011;55785;47.946;20.540;2024-03-07T07:26:15;3.50;;;2.40;;
67585;SDS011;55785;47.946;20.540;2024-03-07T07:28:40;3.63;;;2.30;;
67585;SDS011;55785;47.946;20.540;2024-03-07T07:31:06;3.07;;;2.30;;
67585;SDS011;55785;47.946;20.540;2024-03-07T07:33:31;6.13;;;2.37;;
67585;SDS011;55785;47.946;20.540;2024-03-07T07:35:56;3.00;;;2.13;;
67585;SDS011;55785;47.946;20.540;2024-03-07T07:38:22;3.93;;;2.50;;
67585;SDS011;55785;47.946;20.540;2024-03-07T07:40:47;3.10;;;2.07;;
67585;SDS011;55785;47.946;20.540;2024-03-07T07:43:13;3.67;;;2.17;;
67585;SDS011;55785;47.946;20.540;2024-03-07T07:45:38;2.70;;;2.10;;
67585;SDS011;55785;47.946;20.540;2024-03-07T07:48:03;3.93;;;2.47;;
67585;SDS011;55785;47.946;20.540;2024-03-07T07:50:29;3.17;;;2.30;;
67585;SDS011;55785;47.946;20.540;2024-03-07T07:52:58;3.30;;;2.37;;
67585;SDS011;55785;47.946;20.540;2024-03-07T07:55:27;4.30;;;2.63;;
67585;SDS011;55785;47.946;20.540;2024-03-07T07:57:54;4.03;;;2.23;;
67585;SDS011;55785;47.946;20.540;2024-03-07T08:00:21;2.93;;;2.17;;
67585;SDS011;55785;47.946;20.540;2024-03-07T08:03:06;6.27;;;2.80;;
67585;SDS011;55785;47.946;20.540;2024-03-07T08:05:34;3.00;;;1.97;;
67585;SDS011;55785;47.946;20.540;2024-03-07T08:08:07;3.63;;;2.33;;
67585;SDS011;55785;47.946;20.540;2024-03-07T08:10:34;3.13;;;2.07;;
67585;SDS011;55785;47.946;20.540;2024-03-07T08:13:02;4.03;;;2.50;;
67585;SDS011;55785;47.946;20.540;2024-03-07T08:15:29;3.47;;;1.77;;
67585;SDS011;55785;47.946;20.540;2024-03-07T08:17:55;3.07;;;1.90;;
67585;SDS011;55785;47.946;20.540;2024-03-07T08:20:22;3.90;;;2.53;;
67585;SDS011;55785;47.946;20.540;2024-03-07T08:22:51;3.10;;;1.90;;
67585;SDS011;55785;47.946;20.540;2024-03-07T08:25:18;2.73;;;1.90;;
67585;SDS011;55785;47.946;20.540;2024-03-07T08:27:45;4.77;;;2.50;;
67585;SDS011;55785;47.946;20.540;2024-03-07T08:30:12;2.67;;;1.87;;
67585;SDS011;55785;47.946;20.540;2024-03-07T08:32:41;2.07;;;1.70;;
67585;SDS011;55785;47.946;20.540;2024-03-07T08:35:08;3.37;;;1.80;;
67585;SDS011;55785;47.946;20.540;2024-03-07T08:37:38;3.47;;;1.90;;
67585;SDS011;55785;47.946;20.540;2024-03-07T08:40:04;2.80;;;1.67;;
67585;SDS011;55785;47.946;20.540;2024-03-07T08:42:31;2.83;;;2.07;;
67585;SDS011;55785;47.946;20.540;2024-03-07T08:44:58;3.23;;;2.13;;
67585;SDS011;55785;47.946;20.540;2024-03-07T08:47:23;4.53;;;2.00;;
67585;SDS011;55785;47.946;20.540;2024-03-07T08:49:48;2.47;;;1.83;;
67585;SDS011;55785;47.946;20.540;2024-03-07T08:52:14;1.80;;;1.47;;
67585;SDS011;55785;47.946;20.540;2024-03-07T08:54:39;2.93;;;1.60;;
67585;SDS011;55785;47.946;20.540;2024-03-07T08:57:04;2.67;;;1.77;;
67585;SDS011;55785;47.946;20.540;2024-03-07T08:59:30;2.80;;;1.60;;
67585;SDS011;55785;47.946;20.540;2024-03-07T09:01:55;2.87;;;1.97;;
67585;SDS011;55785;47.946;20.540;2024-03-07T09:04:20;4.37;;;1.87;;
67585;SDS011;55785;47.946;20.540;2024-03-07T09:06:45;4.07;;;1.70;;
67585;SDS011;55785;47.946;20.540;2024-03-07T09:09:11;2.13;;;1.70;;
67585;SDS011;55785;47.946;20.540;2024-03-07T09:11:36;2.27;;;1.47;;
67585;SDS011;55785;47.946;20.540;2024-03-07T09:14:02;2.17;;;1.40;;
67585;SDS011;55785;47.946;20.540;2024-03-07T09:16:27;2.10;;;1.53;;
67585;SDS011;55785;47.946;20.540;2024-03-07T09:18:53;2.60;;;1.27;;
67585;SDS011;55785;47.946;20.540;2024-03-07T09:21:18;4.27;;;1.80;;
67585;SDS011;55785;47.946;20.540;2024-03-07T09:23:43;2.27;;;1.57;;
67585;SDS011;55785;47.946;20.540;2024-03-07T09:26:08;2.90;;;1.40;;
67585;SDS011;55785;47.946;20.540;2024-03-07T09:28:34;2.57;;;2.00;;
67585;SDS011;55785;47.946;20.540;2024-03-07T09:30:59;2.20;;;1.47;;
67585;SDS011;55785;47.946;20.540;2024-03-07T09:33:24;2.83;;;1.70;;
67585;SDS011;55785;47.946;20.540;2024-03-07T09:35:50;2.33;;;1.50;;
67585;SDS011;55785;47.946;20.540;2024-03-07T09:38:15;2.80;;;1.70;;
67585;SDS011;55785;47.946;20.540;2024-03-07T09:40:40;3.10;;;1.53;;
67585;SDS011;55785;47.946;20.540;2024-03-07T09:43:06;5.37;;;1.13;;
67585;SDS011;55785;47.946;20.540;2024-03-07T09:45:32;1.77;;;1.30;;
67585;SDS011;55785;47.946;20.540;2024-03-07T09:47:58;1.90;;;1.20;;
67585;SDS011;55785;47.946;20.540;2024-03-07T09:50:25;1.60;;;1.20;;
67585;SDS011;55785;47.946;20.540;2024-03-07T09:52:53;2.30;;;1.70;;
67585;SDS011;55785;47.946;20.540;2024-03-07T09:55:20;2.17;;;1.50;;
67585;SDS011;55785;47.946;20.540;2024-03-07T09:57:46;2.25;;;1.60;;
67585;SDS011;55785;47.946;20.540;2024-03-07T10:00:12;2.57;;;1.87;;
67585;SDS011;55785;47.946;20.540;2024-03-07T10:02:38;2.57;;;1.70;;
67585;SDS011;55785;47.946;20.540;2024-03-07T10:05:05;2.87;;;1.77;;
67585;SDS011;55785;47.946;20.540;2024-03-07T10:07:35;2.30;;;1.67;;
67585;SDS011;55785;47.946;20.540;2024-03-07T10:10:00;5.03;;;1.90;;
67585;SDS011;55785;47.946;20.540;2024-03-07T10:12:25;2.03;;;1.70;;
67585;SDS011;55785;47.946;20.540;2024-03-07T10:14:51;6.53;;;4.27;;
67585;SDS011;55785;47.946;20.540;2024-03-07T10:17:23;4.83;;;2.53;;
67585;SDS011;55785;47.946;20.540;2024-03-07T10:19:49;3.40;;;2.07;;
67585;SDS011;55785;47.946;20.540;2024-03-07T10:22:14;6.73;;;2.90;;
67585;SDS011;55785;47.946;20.540;2024-03-07T10:24:40;2.23;;;1.70;;
67585;SDS011;55785;47.946;20.540;2024-03-07T10:27:13;2.83;;;1.73;;
67585;SDS011;55785;47.946;20.540;2024-03-07T10:29:39;2.60;;;1.50;;
67585;SDS011;55785;47.946;20.540;2024-03-07T10:32:10;3.63;;;2.00;;
67585;SDS011;55785;47.946;20.540;2024-03-07T10:34:37;3.13;;;2.30;;
67585;SDS011;55785;47.946;20.540;2024-03-07T10:37:03;5.87;;;3.10;;
67585;SDS011;55785;47.946;20.540;2024-03-07T10:39:29;3.03;;;2.10;;
67585;SDS011;55785;47.946;20.540;2024-03-07T10:41:55;4.20;;;1.70;;
67585;SDS011;55785;47.946;20.540;2024-03-07T10:44:25;2.30;;;1.77;;
67585;SDS011;55785;47.946;20.540;2024-03-07T10:46:57;5.07;;;1.97;;
67585;SDS011;55785;47.946;20.540;2024-03-07T10:49:25;4.67;;;1.77;;
67585;SDS011;55785;47.946;20.540;2024-03-07T10:52:02;3.70;;;1.80;;
67585;SDS011;55785;47.946;20.540;2024-03-07T10:54:39;2.47;;;1.87;;
67585;SDS011;55785;47.946;20.540;2024-03-07T10:57:31;3.80;;;1.90;;
67585;SDS011;55785;47.946;20.540;2024-03-07T11:02:39;4.73;;;2.83;;
67585;SDS011;55785;47.946;20.540;2024-03-07T11:05:11;3.07;;;1.90;;
67585;SDS011;55785;47.946;20.540;2024-03-07T11:07:38;2.73;;;2.17;;
67585;SDS011;55785;47.946;20.540;2024-03-07T11:10:04;5.43;;;2.23;;
67585;SDS011;55785;47.946;20.540;2024-03-07T11:12:30;2.30;;;1.70;;
67585;SDS011;55785;47.946;20.540;2024-03-07T11:14:56;2.57;;;1.87;;
67585;SDS011;55785;47.946;20.540;2024-03-07T11:17:22;5.83;;;1.87;;
67585;SDS011;55785;47.946;20.540;2024-03-07T11:19:48;3.40;;;1.90;;
67585;SDS011;55785;47.946;20.540;2024-03-07T11:22:30;2.50;;;1.53;;
67585;SDS011;55785;47.946;20.540;2024-03-07T11:25:05;2.80;;;1.70;;
67585;SDS011;55785;47.946;20.540;2024-03-07T11:27:30;2.28;;;1.80;;
67585;SDS011;55785;47.946;20.540;2024-03-07T11:29:59;2.57;;;1.77;;
67585;SDS011;55785;47.946;20.540;2024-03-07T11:32:34;2.73;;;1.47;;
67585;SDS011;55785;47.946;20.540;2024-03-07T11:35:03;2.67;;;1.40;;
67585;SDS011;55785;47.946;20.540;2024-03-07T11:37:45;3.13;;;1.67;;
67585;SDS011;55785;47.946;20.540;2024-03-07T11:40:11;4.43;;;1.63;;
67585;SDS011;55785;47.946;20.540;2024-03-07T11:42:36;3.00;;;1.87;;
67585;SDS011;55785;47.946;20.540;2024-03-07T11:45:02;2.87;;;1.93;;
67585;SDS011;55785;47.946;20.540;2024-03-07T11:47:34;1.47;;;1.23;;
67585;SDS011;55785;47.946;20.540;2024-03-07T11:50:06;6.67;;;2.60;;
67585;SDS011;55785;47.946;20.540;2024-03-07T11:52:32;2.33;;;1.80;;
67585;SDS011;55785;47.946;20.540;2024-03-07T11:54:57;2.17;;;1.90;;
67585;SDS011;55785;47.946;20.540;2024-03-07T11:57:22;2.63;;;1.60;;
67585;SDS011;55785;47.946;20.540;2024-03-07T11:59:48;1.57;;;1.20;;
67585;SDS011;55785;47.946;20.540;2024-03-07T12:02:14;2.47;;;1.67;;
67585;SDS011;55785;47.946;20.540;2024-03-07T12:04:39;2.63;;;1.43;;
67585;SDS011;55785;47.946;20.540;2024-03-07T12:07:05;4.23;;;1.50;;
67585;SDS011;55785;47.946;20.540;2024-03-07T12:09:30;3.23;;;1.93;;
67585;SDS011;55785;47.946;20.540;2024-03-07T12:11:55;1.90;;;1.17;;
67585;SDS011;55785;47.946;20.540;2024-03-07T12:14:21;1.90;;;1.20;;
67585;SDS011;55785;47.946;20.540;2024-03-07T12:16:47;3.73;;;1.20;;
67585;SDS011;55785;47.946;20.540;2024-03-07T12:19:12;3.07;;;1.50;;
67585;SDS011;55785;47.946;20.540;2024-03-07T12:21:38;2.03;;;1.30;;
67585;SDS011;55785;47.946;20.540;2024-03-07T12:24:13;1.60;;;1.03;;
67585;SDS011;55785;47.946;20.540;2024-03-07T12:26:39;1.98;;;1.42;;
67585;SDS011;55785;47.946;20.540;2024-03-07T12:29:11;6.20;;;2.10;;
67585;SDS011;55785;47.946;20.540;2024-03-07T12:31:39;3.23;;;1.50;;
67585;SDS011;55785;47.946;20.540;2024-03-07T12:34:06;2.70;;;1.70;;
67585;SDS011;55785;47.946;20.540;2024-03-07T12:36:32;3.70;;;2.37;;
67585;SDS011;55785;47.946;20.540;2024-03-07T12:38:58;2.63;;;2.13;;
67585;SDS011;55785;47.946;20.540;2024-03-07T12:41:23;4.57;;;2.20;;
67585;SDS011;55785;47.946;20.540;2024-03-07T12:43:49;2.20;;;1.30;;
67585;SDS011;55785;47.946;20.540;2024-03-07T12:46:14;2.20;;;1.77;;
67585;SDS011;55785;47.946;20.540;2024-03-07T12:48:39;4.03;;;2.40;;
67585;SDS011;55785;47.946;20.540;2024-03-07T12:51:05;3.00;;;1.80;;
67585;SDS011;55785;47.946;20.540;2024-03-07T12:53:30;3.67;;;2.10;;
67585;SDS011;55785;47.946;20.540;2024-03-07T12:55:56;2.30;;;1.67;;
67585;SDS011;55785;47.946;20.540;2024-03-07T12:58:21;4.50;;;1.90;;
67585;SDS011;55785;47.946;20.540;2024-03-07T13:00:47;2.43;;;1.57;;
67585;SDS011;55785;47.946;20.540;2024-03-07T13:03:12;2.47;;;1.47;;
67585;SDS011;55785;47.946;20.540;2024-03-07T13:05:37;2.70;;;1.87;;
67585;SDS011;55785;47.946;20.540;2024-03-07T13:08:03;8.77;;;3.50;;
67585;SDS011;55785;47.946;20.540;2024-03-07T13:10:28;5.47;;;2.17;;
67585;SDS011;55785;47.946;20.540;2024-03-07T13:12:54;4.77;;;2.93;;
67585;SDS011;55785;47.946;20.540;2024-03-07T13:15:19;6.37;;;3.27;;
67585;SDS011;55785;47.946;20.540;2024-03-07T13:17:44;3.80;;;2.60;;
67585;SDS011;55785;47.946;20.540;2024-03-07T13:20:10;5.80;;;2.70;;
67585;SDS011;55785;47.946;20.540;2024-03-07T13:22:41;2.63;;;2.27;;
67585;SDS011;55785;47.946;20.540;2024-03-07T13:25:07;7.40;;;3.57;;
67585;SDS011;55785;47.946;20.540;2024-03-07T13:27:32;5.47;;;2.80;;
67585;SDS011;55785;47.946;20.540;2024-03-07T13:29:57;5.93;;;2.87;;
67585;SDS011;55785;47.946;20.540;2024-03-07T13:32:23;4.83;;;3.00;;
67585;SDS011;55785;47.946;20.540;2024-03-07T13:34:48;5.03;;;3.17;;
67585;SDS011;55785;47.946;20.540;2024-03-07T13:37:14;3.37;;;2.40;;
67585;SDS011;55785;47.946;20.540;2024-03-07T13:39:39;4.10;;;2.73;;
67585;SDS011;55785;47.946;20.540;2024-03-07T13:42:04;6.07;;;3.70;;
67585;SDS011;55785;47.946;20.540;2024-03-07T13:44:30;8.23;;;3.47;;
67585;SDS011;55785;47.946;20.540;2024-03-07T13:46:55;5.17;;;3.23;;
67585;SDS011;55785;47.946;20.540;2024-03-07T13:49:20;4.40;;;3.27;;
67585;SDS011;55785;47.946;20.540;2024-03-07T13:51:46;5.77;;;3.57;;
67585;SDS011;55785;47.946;20.540;2024-03-07T13:54:11;7.83;;;4.83;;
67585;SDS011;55785;47.946;20.540;2024-03-07T13:56:46;6.37;;;3.53;;
67585;SDS011;55785;47.946;20.540;2024-03-07T13:59:24;7.77;;;3.97;;
67585;SDS011;55785;47.946;20.540;2024-03-07T14:07:53;5.17;;;3.97;;
67585;SDS011;55785;47.946;20.540;2024-03-07T14:15:54;9.47;;;4.17;;
67585;SDS011;55785;47.946;20.540;2024-03-07T14:31:53;5.00;;;3.07;;
67585;SDS011;55785;47.946;20.540;2024-03-07T14:36:56;7.13;;;4.67;;
67585;SDS011;55785;47.946;20.540;2024-03-07T14:39:34;7.93;;;4.10;;
67585;SDS011;55785;47.946;20.540;2024-03-07T14:42:04;7.93;;;3.67;;
67585;SDS011;55785;47.946;20.540;2024-03-07T14:44:31;7.93;;;4.00;;
67585;SDS011;55785;47.946;20.540;2024-03-07T14:46:58;5.90;;;3.43;;
67585;SDS011;55785;47.946;20.540;2024-03-07T14:49:27;4.17;;;2.30;;
67585;SDS011;55785;47.946;20.540;2024-03-07T14:51:52;5.53;;;3.30;;
67585;SDS011;55785;47.946;20.540;2024-03-07T14:54:18;4.27;;;3.20;;
67585;SDS011;55785;47.946;20.540;2024-03-07T14:56:43;7.43;;;4.30;;
67585;SDS011;55785;47.946;20.540;2024-03-07T14:59:09;7.33;;;3.93;;